createdAt,value
2018-07-30T00:01:05.655Z,67.70
2018-07-30T00:03:35.425Z,68.80
2018-07-30T00:06:05.128Z,68.70
2018-07-30T00:08:34.886Z,68.60
2018-07-30T00:11:04.603Z,68.90
2018-07-30T00:16:03.650Z,68.40
2018-07-30T00:18:33.724Z,69.20
2018-07-30T00:21:03.447Z,69.50
2018-07-30T00:23:33.150Z,69.50
2018-07-30T00:26:02.850Z,70.10
2018-07-30T00:28:32.527Z,70.30
2018-07-30T00:31:02.212Z,70.00
2018-07-30T00:33:31.866Z,70.00
2018-07-30T00:36:01.527Z,70.50
2018-07-30T00:38:31.167Z,70.80
2018-07-30T00:41:00.851Z,71.10
2018-07-30T00:43:30.506Z,71.00
2018-07-30T00:46:00.195Z,70.80
2018-07-30T00:48:29.858Z,71.20
2018-07-30T00:50:59.550Z,71.20
2018-07-30T00:53:29.442Z,71.30
2018-07-30T00:55:59.110Z,71.20
2018-07-30T00:58:28.767Z,70.80
2018-07-30T01:00:58.479Z,70.40
2018-07-30T01:03:28.122Z,70.70
2018-07-30T01:05:57.823Z,70.00
2018-07-30T01:08:27.457Z,69.90
2018-07-30T01:10:57.495Z,70.00
2018-07-30T01:13:27.150Z,70.10
2018-07-30T01:15:56.811Z,70.30
2018-07-30T01:18:26.455Z,70.70
2018-07-30T01:20:56.159Z,70.70
2018-07-30T01:23:25.811Z,70.80
2018-07-30T01:25:55.853Z,70.90
2018-07-30T01:28:25.514Z,71.20
2018-07-30T01:30:55.186Z,71.20
2018-07-30T01:33:24.818Z,71.10
2018-07-30T01:35:54.511Z,71.10
2018-07-30T01:38:24.187Z,71.70
2018-07-30T01:40:53.871Z,71.70
2018-07-30T01:43:23.526Z,71.80
2018-07-30T01:45:58.887Z,71.90
2018-07-30T01:48:28.574Z,72.00
2018-07-30T01:50:58.270Z,72.20
2018-07-30T01:53:28.514Z,72.10
2018-07-30T01:55:58.442Z,72.30
2018-07-30T01:58:28.482Z,72.40
2018-07-30T02:00:58.206Z,73.00
2018-07-30T02:03:28.219Z,73.20
2018-07-30T02:05:57.949Z,73.50
2018-07-30T02:08:27.642Z,74.10
2018-07-30T02:10:57.351Z,73.90
2018-07-30T02:13:27.014Z,74.40
2018-07-30T02:15:56.688Z,74.90
2018-07-30T02:18:26.370Z,75.40
2018-07-30T02:20:56.022Z,75.50
2018-07-30T02:23:25.738Z,76.20
2018-07-30T02:25:55.422Z,76.10
2018-07-30T02:28:25.080Z,76.40
2018-07-30T02:30:55.152Z,75.80
2018-07-30T02:33:24.831Z,76.20
2018-07-30T02:35:55.007Z,75.80
2018-07-30T02:38:24.658Z,75.90
2018-07-30T02:40:54.387Z,75.80
2018-07-30T02:43:24.112Z,76.20
2018-07-30T02:45:53.903Z,75.90
2018-07-30T02:48:23.952Z,75.90
2018-07-30T02:50:53.965Z,76.20
2018-07-30T02:53:23.654Z,76.80
2018-07-30T02:55:53.335Z,77.10
2018-07-30T02:58:23.053Z,77.10
2018-07-30T03:00:52.705Z,77.10
2018-07-30T03:03:23.103Z,77.10
2018-07-30T03:05:52.794Z,77.40
2018-07-30T03:08:22.494Z,77.20
2018-07-30T03:10:52.156Z,77.40
2018-07-30T03:13:21.852Z,77.30
2018-07-30T03:15:51.546Z,77.40
2018-07-30T03:18:21.608Z,77.20
2018-07-30T03:20:51.263Z,77.30
2018-07-30T03:23:21.399Z,77.00
2018-07-30T03:25:51.054Z,76.90
2018-07-30T03:28:20.770Z,77.00
2018-07-30T03:30:50.502Z,77.00
2018-07-30T03:33:20.187Z,77.00
2018-07-30T03:35:49.856Z,77.00
2018-07-30T03:38:19.576Z,77.40
2018-07-30T03:40:49.334Z,77.00
2018-07-30T03:43:19.066Z,77.00
2018-07-30T03:45:54.910Z,76.90
2018-07-30T03:48:24.663Z,76.90
2018-07-30T03:50:54.323Z,77.00
2018-07-30T03:53:24.375Z,77.10
2018-07-30T03:55:54.212Z,77.30
2018-07-30T03:58:24.250Z,77.70
2018-07-30T04:00:54.310Z,78.10
2018-07-30T04:03:23.990Z,78.20
2018-07-30T04:05:54.141Z,78.00
2018-07-30T04:08:23.975Z,78.00
2018-07-30T04:10:53.671Z,77.80
2018-07-30T04:13:23.707Z,77.90
2018-07-30T04:15:53.406Z,77.90
2018-07-30T04:18:23.090Z,77.90
2018-07-30T04:20:52.802Z,78.10
2018-07-30T04:23:22.531Z,78.20
2018-07-30T04:25:52.470Z,79.00
2018-07-30T04:28:22.175Z,78.80
2018-07-30T04:30:52.189Z,78.90
2018-07-30T04:33:22.073Z,78.90
2018-07-30T04:35:51.734Z,78.80
2018-07-30T04:38:21.430Z,79.40
2018-07-30T04:40:51.156Z,79.80
2018-07-30T04:43:20.843Z,79.80
2018-07-30T04:45:53.318Z,79.70
2018-07-30T04:48:22.990Z,80.20
2018-07-30T04:50:52.691Z,79.70
2018-07-30T04:53:22.381Z,79.30
2018-07-30T04:55:52.039Z,79.30
2018-07-30T04:58:21.746Z,79.10
2018-07-30T05:00:52.154Z,79.30
2018-07-30T05:03:23.534Z,79.70
2018-07-30T05:05:53.219Z,79.80
2018-07-30T05:08:22.963Z,79.70
2018-07-30T05:10:52.626Z,79.60
2018-07-30T05:13:22.326Z,79.80
2018-07-30T05:15:52.030Z,80.10
2018-07-30T05:18:21.703Z,80.40
2018-07-30T05:20:51.423Z,80.50
2018-07-30T05:23:21.123Z,80.40
2018-07-30T05:28:20.131Z,80.50
2018-07-30T05:30:49.859Z,80.00
2018-07-30T05:33:19.535Z,81.00
2018-07-30T05:35:49.313Z,81.30
2018-07-30T05:38:19.014Z,81.00
2018-07-30T05:40:49.450Z,80.60
2018-07-30T05:43:19.164Z,80.20
2018-07-30T05:45:54.742Z,78.80
2018-07-30T05:48:24.423Z,79.60
2018-07-30T05:50:54.471Z,78.10
2018-07-30T05:53:24.160Z,78.20
2018-07-30T05:55:53.891Z,78.90
2018-07-30T05:58:23.574Z,77.80
2018-07-30T06:00:53.383Z,77.90
2018-07-30T06:03:23.033Z,76.40
2018-07-30T06:05:52.770Z,74.20
2018-07-30T06:08:22.433Z,72.70
2018-07-30T06:10:52.127Z,71.60
2018-07-30T06:13:22.074Z,70.70
2018-07-30T06:15:51.774Z,71.70
2018-07-30T06:18:21.456Z,69.40
2018-07-30T06:20:51.525Z,68.50
2018-07-30T06:23:21.167Z,66.90
2018-07-30T06:25:50.834Z,68.20
2018-07-30T06:28:20.516Z,66.00
2018-07-30T06:30:50.811Z,67.10
2018-07-30T06:33:20.470Z,65.60
2018-07-30T06:35:49.894Z,63.00
2018-07-30T06:38:19.561Z,63.40
2018-07-30T06:40:49.240Z,65.70
2018-07-30T06:43:18.650Z,62.90
2018-07-30T06:45:53.221Z,63.60
2018-07-30T06:48:22.818Z,62.30
2018-07-30T06:50:52.494Z,61.20
2018-07-30T06:53:21.926Z,62.00
2018-07-30T06:55:51.673Z,61.40
2018-07-30T06:58:21.051Z,61.00
2018-07-30T07:00:50.534Z,61.50
2018-07-30T07:03:19.964Z,61.60
2018-07-30T07:05:49.535Z,60.90
2018-07-30T07:08:18.967Z,60.20
2018-07-30T07:10:48.721Z,59.80
2018-07-30T07:13:18.271Z,61.90
2018-07-30T07:15:47.951Z,61.30
2018-07-30T07:18:17.599Z,60.10
2018-07-30T07:20:47.326Z,61.50
2018-07-30T07:23:17.159Z,61.00
2018-07-30T07:25:46.547Z,60.00
2018-07-30T07:28:16.244Z,60.80
2018-07-30T07:30:46.028Z,60.40
2018-07-30T07:33:15.710Z,59.80
2018-07-30T07:35:45.423Z,59.30
2018-07-30T07:38:15.091Z,60.70
2018-07-30T07:40:44.836Z,58.70
2018-07-30T07:43:14.538Z,58.80
2018-07-30T07:45:49.887Z,59.80
2018-07-30T07:48:19.661Z,58.00
2018-07-30T07:53:18.935Z,58.30
2018-07-30T07:55:48.641Z,58.50
2018-07-30T07:58:18.817Z,58.10
2018-07-30T08:00:49.428Z,57.40
2018-07-30T08:03:19.078Z,59.40
2018-07-30T08:05:48.475Z,56.50
2018-07-30T08:08:18.150Z,57.20
2018-07-30T08:10:47.798Z,57.20
2018-07-30T08:13:17.868Z,56.70
2018-07-30T08:15:47.286Z,56.60
2018-07-30T08:18:17.355Z,56.80
2018-07-30T08:20:46.786Z,55.00
2018-07-30T08:23:16.528Z,55.90
2018-07-30T08:25:45.986Z,55.80
2018-07-30T08:28:15.401Z,54.50
2018-07-30T08:30:45.483Z,54.80
2018-07-30T08:33:14.903Z,54.20
2018-07-30T08:35:44.646Z,54.00
2018-07-30T08:38:14.096Z,53.40
2018-07-30T08:40:43.487Z,52.90
2018-07-30T08:43:13.252Z,52.10
2018-07-30T08:45:48.195Z,53.70
2018-07-30T08:48:17.627Z,52.80
2018-07-30T08:50:47.400Z,52.80
2018-07-30T08:53:16.901Z,51.60
2018-07-30T08:55:46.332Z,52.30
2018-07-30T08:58:15.767Z,52.00
2018-07-30T09:00:45.216Z,52.80
2018-07-30T09:03:14.661Z,52.50
2018-07-30T09:05:44.048Z,52.60
2018-07-30T09:08:13.496Z,50.90
2018-07-30T09:10:42.891Z,52.10
2018-07-30T09:13:12.364Z,53.40
2018-07-30T09:15:41.742Z,52.80
2018-07-30T09:18:11.504Z,51.90
2018-07-30T09:20:41.428Z,52.40
2018-07-30T09:23:10.879Z,51.60
2018-07-30T09:25:40.284Z,52.60
2018-07-30T09:28:09.671Z,51.90
2018-07-30T09:30:39.050Z,51.40
2018-07-30T09:33:09.048Z,48.80
2018-07-30T09:35:38.874Z,48.40
2018-07-30T09:38:08.550Z,45.40
2018-07-30T09:40:38.230Z,44.00
2018-07-30T09:43:07.667Z,45.80
2018-07-30T09:45:42.614Z,46.80
2018-07-30T09:48:11.990Z,47.10
2018-07-30T09:50:41.507Z,44.90
2018-07-30T09:53:11.030Z,46.30
2018-07-30T09:55:40.727Z,47.00
2018-07-30T09:58:10.138Z,45.80
2018-07-30T10:00:44.996Z,45.70
2018-07-30T10:03:14.674Z,47.30
2018-07-30T10:05:44.103Z,46.20
2018-07-30T10:08:13.762Z,46.30
2018-07-30T10:10:43.130Z,47.60
2018-07-30T10:13:12.545Z,45.10
2018-07-30T10:15:42.257Z,47.50
2018-07-30T10:18:11.999Z,45.40
2018-07-30T10:20:41.604Z,47.30
2018-07-30T10:23:10.983Z,47.10
2018-07-30T10:25:40.364Z,46.70
2018-07-30T10:28:09.809Z,47.50
2018-07-30T10:30:39.259Z,46.40
2018-07-30T10:33:08.993Z,45.90
2018-07-30T10:35:38.467Z,45.00
2018-07-30T10:38:08.357Z,44.90
2018-07-30T10:40:37.915Z,44.30
2018-07-30T10:43:07.347Z,45.40
2018-07-30T10:45:42.586Z,44.00
2018-07-30T10:48:11.975Z,45.70
2018-07-30T10:50:41.367Z,46.50
2018-07-30T10:53:13.004Z,45.00
2018-07-30T10:55:42.415Z,46.00
2018-07-30T10:58:12.485Z,45.00
2018-07-30T11:00:42.215Z,42.50
2018-07-30T11:03:11.934Z,42.90
2018-07-30T11:05:41.688Z,41.40
2018-07-30T11:08:11.152Z,43.60
2018-07-30T11:10:40.558Z,42.80
2018-07-30T11:13:09.974Z,40.90
2018-07-30T11:15:39.586Z,41.60
2018-07-30T11:18:09.011Z,39.50
2018-07-30T11:20:38.398Z,38.70
2018-07-30T11:23:07.799Z,35.80
2018-07-30T11:25:37.166Z,37.20
2018-07-30T11:28:06.649Z,34.20
2018-07-30T11:30:36.227Z,35.90
2018-07-30T11:33:05.999Z,37.10
2018-07-30T11:35:35.623Z,37.30
2018-07-30T11:38:05.051Z,40.90
2018-07-30T11:40:34.602Z,37.80
2018-07-30T11:43:04.192Z,38.80
2018-07-30T11:45:39.312Z,37.30
2018-07-30T11:48:08.739Z,39.70
2018-07-30T11:50:38.155Z,40.20
2018-07-30T11:53:07.542Z,40.50
2018-07-30T11:55:36.999Z,38.60
2018-07-30T11:58:06.377Z,37.80
2018-07-30T12:00:35.782Z,36.70
2018-07-30T12:03:05.226Z,36.80
2018-07-30T12:05:34.630Z,35.60
2018-07-30T12:08:04.055Z,37.50
2018-07-30T12:10:35.495Z,36.60
2018-07-30T12:13:05.307Z,35.30
2018-07-30T12:15:35.908Z,35.50
2018-07-30T12:18:05.833Z,35.30
2018-07-30T12:20:37.542Z,35.90
2018-07-30T12:23:10.302Z,36.10
2018-07-30T12:25:40.102Z,36.20
2018-07-30T12:28:09.634Z,38.50
2018-07-30T12:30:39.135Z,37.90
2018-07-30T12:33:08.970Z,37.50
2018-07-30T12:35:38.387Z,38.20
2018-07-30T12:38:08.067Z,38.10
2018-07-30T12:40:37.475Z,37.50
2018-07-30T12:43:06.846Z,38.00
2018-07-30T12:45:46.866Z,36.90
2018-07-30T12:48:16.277Z,37.20
2018-07-30T12:50:45.722Z,37.80
2018-07-30T12:53:15.102Z,36.90
2018-07-30T12:55:45.051Z,38.90
2018-07-30T12:58:14.576Z,39.00
2018-07-30T13:00:43.972Z,37.70
2018-07-30T13:03:13.354Z,39.90
2018-07-30T13:05:42.944Z,38.10
2018-07-30T13:08:12.368Z,38.10
2018-07-30T13:10:42.646Z,38.40
2018-07-30T13:13:12.073Z,37.60
2018-07-30T13:15:41.502Z,38.50
2018-07-30T13:18:10.871Z,38.30
2018-07-30T13:20:40.272Z,39.30
2018-07-30T13:23:09.662Z,40.40
2018-07-30T13:25:39.438Z,37.50
2018-07-30T13:28:09.022Z,36.30
2018-07-30T13:30:38.779Z,37.50
2018-07-30T13:33:08.187Z,37.90
2018-07-30T13:35:37.615Z,38.30
2018-07-30T13:38:07.634Z,36.70
2018-07-30T13:40:37.063Z,38.00
2018-07-30T13:43:06.523Z,36.20
2018-07-30T13:45:41.654Z,36.40
2018-07-30T13:48:11.083Z,38.20
2018-07-30T13:50:40.496Z,36.90
2018-07-30T13:53:09.907Z,37.50
2018-07-30T13:55:39.318Z,37.50
2018-07-30T13:58:08.767Z,35.30
2018-07-30T14:00:38.202Z,36.90
2018-07-30T14:03:07.699Z,39.00
2018-07-30T14:05:37.093Z,37.00
2018-07-30T14:08:06.575Z,36.40
2018-07-30T14:10:36.282Z,35.60
2018-07-30T14:13:06.004Z,35.60
2018-07-30T14:15:35.435Z,36.00
2018-07-30T14:18:05.127Z,35.70
2018-07-30T14:20:34.555Z,36.20
2018-07-30T14:23:04.291Z,36.30
2018-07-30T14:25:33.715Z,37.20
2018-07-30T14:28:03.135Z,36.80
2018-07-30T14:30:32.506Z,38.30
2018-07-30T14:33:01.904Z,37.20
2018-07-30T14:35:31.284Z,37.30
2018-07-30T14:38:00.879Z,37.50
2018-07-30T14:40:30.279Z,37.40
2018-07-30T14:43:00.186Z,38.10
2018-07-30T14:45:35.281Z,38.90
2018-07-30T14:48:04.975Z,37.80
2018-07-30T14:50:34.577Z,38.40
2018-07-30T14:53:04.036Z,39.60
2018-07-30T14:55:33.426Z,37.00
2018-07-30T14:58:03.239Z,38.10
2018-07-30T15:00:32.655Z,37.50
2018-07-30T15:03:02.091Z,38.30
2018-07-30T15:05:31.506Z,38.70
2018-07-30T15:08:00.938Z,36.90
2018-07-30T15:10:30.355Z,36.10
2018-07-30T15:12:59.840Z,37.10
2018-07-30T15:15:29.402Z,38.50
2018-07-30T15:20:27.920Z,39.40
2018-07-30T15:22:57.386Z,40.30
2018-07-30T15:25:26.884Z,39.00
2018-07-30T15:27:56.359Z,37.40
2018-07-30T15:30:25.815Z,38.20
2018-07-30T15:32:55.231Z,37.60
2018-07-30T15:35:24.634Z,37.10
2018-07-30T15:37:54.107Z,36.80
2018-07-30T15:40:23.611Z,39.30
2018-07-30T15:42:53.043Z,38.10
2018-07-30T15:45:28.229Z,38.90
2018-07-30T15:47:57.651Z,38.20
2018-07-30T15:50:27.266Z,36.50
2018-07-30T15:52:56.971Z,35.60
2018-07-30T15:55:26.394Z,35.70
2018-07-30T15:57:56.075Z,36.70
2018-07-30T16:00:25.488Z,35.20
2018-07-30T16:02:55.174Z,36.30
2018-07-30T16:05:24.623Z,36.50
2018-07-30T16:07:54.562Z,35.50
2018-07-30T16:10:24.154Z,34.60
2018-07-30T16:12:59.116Z,36.80
2018-07-30T16:15:28.774Z,35.50
2018-07-30T16:17:59.960Z,36.10
2018-07-30T16:20:29.384Z,36.20
2018-07-30T16:22:59.122Z,36.10
2018-07-30T16:25:34.469Z,34.70
2018-07-30T16:28:04.591Z,35.30
2018-07-30T16:30:34.065Z,35.50
2018-07-30T16:33:04.038Z,35.00
2018-07-30T16:35:33.442Z,34.90
2018-07-30T16:38:05.214Z,35.30
2018-07-30T16:40:35.309Z,36.40
2018-07-30T16:43:05.341Z,35.20
2018-07-30T16:45:40.424Z,36.30
2018-07-30T16:48:09.891Z,37.50
2018-07-30T16:50:39.365Z,38.00
2018-07-30T16:53:09.321Z,37.80
2018-07-30T16:55:38.726Z,36.10
2018-07-30T16:58:08.187Z,38.90
2018-07-30T17:00:38.432Z,37.80
2018-07-30T17:03:07.944Z,37.70
2018-07-30T17:05:37.838Z,38.80
2018-07-30T17:08:07.635Z,38.90
2018-07-30T17:10:37.039Z,38.20
2018-07-30T17:13:06.695Z,38.10
2018-07-30T17:15:36.229Z,40.00
2018-07-30T17:18:06.916Z,40.50
2018-07-30T17:20:36.278Z,39.80
2018-07-30T17:23:05.894Z,39.50
2018-07-30T17:25:36.178Z,39.10
2018-07-30T17:28:05.943Z,38.30
2018-07-30T17:30:36.054Z,37.90
2018-07-30T17:33:05.820Z,38.90
2018-07-30T17:35:35.447Z,38.90
2018-07-30T17:38:05.207Z,40.70
2018-07-30T17:40:34.738Z,42.50
2018-07-30T17:43:05.870Z,42.50
2018-07-30T17:45:41.897Z,42.90
2018-07-30T17:48:11.461Z,42.60
2018-07-30T17:50:40.893Z,43.20
2018-07-30T17:53:10.303Z,42.70
2018-07-30T17:55:41.083Z,43.20
2018-07-30T17:58:10.487Z,43.90
2018-07-30T18:00:39.883Z,43.00
2018-07-30T18:03:09.282Z,43.90
2018-07-30T18:05:38.763Z,43.60
2018-07-30T18:08:08.171Z,43.20
2018-07-30T18:10:40.382Z,42.40
2018-07-30T18:13:12.193Z,43.50
2018-07-30T18:15:42.310Z,43.40
2018-07-30T18:18:11.740Z,44.80
2018-07-30T18:20:41.159Z,44.60
2018-07-30T18:23:10.619Z,45.10
2018-07-30T18:25:45.331Z,45.60
2018-07-30T18:28:15.261Z,47.10
2018-07-30T18:30:44.893Z,47.40
2018-07-30T18:33:14.303Z,47.60
2018-07-30T18:35:43.766Z,48.20
2018-07-30T18:38:16.384Z,49.40
2018-07-30T18:40:46.671Z,50.20
2018-07-30T18:43:16.600Z,50.10
2018-07-30T18:45:52.536Z,50.70
2018-07-30T18:48:24.453Z,51.10
2018-07-30T18:50:56.960Z,51.30
2018-07-30T18:53:26.746Z,50.60
2018-07-30T18:55:56.199Z,50.00
2018-07-30T18:58:28.095Z,49.50
2018-07-30T19:00:57.614Z,50.10
2018-07-30T19:03:27.077Z,50.80
2018-07-30T19:05:59.666Z,52.10
2018-07-30T19:08:29.215Z,52.40
2018-07-30T19:10:58.660Z,51.30
2018-07-30T19:13:28.051Z,50.10
2018-07-30T19:15:57.507Z,50.00
2018-07-30T19:18:26.980Z,49.70
2018-07-30T19:20:56.396Z,50.00
2018-07-30T19:23:26.414Z,50.10
2018-07-30T19:25:56.301Z,50.10
2018-07-30T19:28:25.710Z,50.00
2018-07-30T19:30:55.133Z,49.90
2018-07-30T19:33:24.535Z,49.90
2018-07-30T19:35:53.946Z,49.90
2018-07-30T19:38:23.371Z,51.70
2018-07-30T19:40:53.050Z,52.30
2018-07-30T19:43:22.454Z,51.30
2018-07-30T19:45:53.794Z,52.70
2018-07-30T19:48:23.186Z,53.20
2018-07-30T19:50:52.562Z,54.50
2018-07-30T19:53:21.951Z,55.00
2018-07-30T19:55:51.338Z,56.00
2018-07-30T19:58:21.087Z,55.10
2018-07-30T20:00:50.380Z,55.50
2018-07-30T20:05:48.813Z,54.10
2018-07-30T20:08:18.251Z,53.90
2018-07-30T20:10:47.851Z,53.90
2018-07-30T20:13:17.210Z,54.00
2018-07-30T20:15:46.609Z,54.30
2018-07-30T20:18:15.985Z,54.80
2018-07-30T20:20:45.387Z,54.90
2018-07-30T20:25:44.075Z,54.70
2018-07-30T20:28:13.798Z,54.90
2018-07-30T20:30:43.220Z,54.90
2018-07-30T20:33:12.763Z,55.10
2018-07-30T20:35:42.321Z,55.10
2018-07-30T20:38:11.678Z,55.00
2018-07-30T20:40:41.630Z,55.10
2018-07-30T20:43:11.034Z,55.20
2018-07-30T20:45:46.079Z,55.30
2018-07-30T20:48:15.778Z,55.20
2018-07-30T20:50:45.358Z,55.20
2018-07-30T20:53:14.755Z,55.50
2018-07-30T20:55:44.627Z,56.20
2018-07-30T20:58:14.110Z,55.80
2018-07-30T21:00:44.478Z,56.10
2018-07-30T21:03:14.166Z,56.30
2018-07-30T21:05:44.475Z,56.40
2018-07-30T21:08:15.443Z,56.60
2018-07-30T21:10:45.911Z,56.40
2018-07-30T21:13:16.855Z,56.30
2018-07-30T21:15:46.905Z,56.30
2018-07-30T21:18:16.674Z,56.60
2018-07-30T21:20:46.689Z,56.70
2018-07-30T21:23:16.386Z,56.90
2018-07-30T21:25:46.134Z,57.50
2018-07-30T21:28:15.843Z,57.70
2018-07-30T21:30:45.530Z,57.90
2018-07-30T21:33:15.259Z,56.70
2018-07-30T21:35:45.281Z,56.90
2018-07-30T21:38:14.723Z,57.40
2018-07-30T21:40:44.145Z,57.20
2018-07-30T21:43:14.034Z,57.30
2018-07-30T21:45:49.330Z,57.10
2018-07-30T21:48:19.023Z,58.10
2018-07-30T21:50:48.694Z,58.60
2018-07-30T21:53:18.383Z,58.30
2018-07-30T21:55:48.049Z,58.50
2018-07-30T21:58:17.748Z,58.00
2018-07-30T22:00:53.089Z,58.50
2018-07-30T22:03:22.806Z,59.10
2018-07-30T22:05:59.627Z,59.60
2018-07-30T22:08:29.538Z,59.50
2018-07-30T22:10:59.226Z,57.90
2018-07-30T22:13:28.936Z,58.10
2018-07-30T22:15:58.651Z,57.30
2018-07-30T22:18:28.395Z,59.20
2018-07-30T22:20:58.111Z,60.00
2018-07-30T22:23:27.831Z,61.40
2018-07-30T22:25:57.498Z,60.70
2018-07-30T22:28:27.166Z,61.00
2018-07-30T22:30:56.901Z,59.70
2018-07-30T22:33:26.750Z,58.30
2018-07-30T22:35:56.466Z,59.10
2018-07-30T22:38:26.138Z,59.60
2018-07-30T22:40:55.794Z,60.00
2018-07-30T22:43:25.527Z,60.60
2018-07-30T22:45:55.174Z,60.90
2018-07-30T22:48:24.878Z,61.10
2018-07-30T22:50:54.580Z,61.60
2018-07-30T22:53:24.316Z,61.20
2018-07-30T22:55:54.355Z,61.60
2018-07-30T22:58:24.048Z,61.50
2018-07-30T23:00:53.735Z,61.10
2018-07-30T23:03:23.518Z,61.20
2018-07-30T23:05:53.211Z,61.40
2018-07-30T23:08:22.911Z,61.50
2018-07-30T23:10:52.578Z,61.20
2018-07-30T23:13:22.270Z,61.30
2018-07-30T23:15:51.934Z,61.70
2018-07-30T23:18:21.606Z,61.70
2018-07-30T23:20:51.306Z,60.10
2018-07-30T23:23:21.011Z,60.80
2018-07-30T23:25:50.670Z,61.40
2018-07-30T23:28:20.350Z,59.80
2018-07-30T23:30:50.040Z,60.10
2018-07-30T23:33:19.729Z,60.80
2018-07-30T23:35:49.370Z,59.80
2018-07-30T23:38:19.047Z,59.60
2018-07-30T23:40:48.738Z,59.40
2018-07-30T23:43:18.435Z,59.60
2018-07-30T23:45:53.696Z,59.90
2018-07-30T23:48:23.435Z,59.90
2018-07-30T23:50:53.080Z,60.40
2018-07-30T23:53:22.773Z,61.10
2018-07-30T23:55:52.447Z,61.00
2018-07-30T23:58:22.095Z,61.70
